TGW511 VVDN-WSSS
Flight info
| Callsign | TGW511 |
|---|---|
| Flight time | 2h 14m |
| Altitude | 36000 |
| Route | SADIN1A SADIN Q1 AC L644 BODOD/K0843F380 L644 CN/K0846F360 L642 ESPOB/N0458F360 Q801 ESBUM/N0457F370 Q802 ELALO ELALO1A |
| Aircraft | A320/M-SDFGHIRWYZ/LB1 |
Departure
| Time | 2026-05-08 10:33 |
|---|---|
| Airport | Da Nang International Airport (VVDN) |
Arrival
| Time | 2026-05-08 12:47 |
|---|---|
| Airport | Singapore Changi Airport (WSSS) |
| Time | Latitude | Longitude | Altitude | Speed | Heading |
|---|---|---|---|---|---|
| 2026-05-08 10:05 | 16.05458 | 108.20172 | 29 ft | 0 kts | 120° |
| 2026-05-08 10:24 | 16.05465 | 108.20161 | 29 ft | 4 kts | 119° |
| 2026-05-08 10:24 | 16.05477 | 108.20136 | 29 ft | 4 kts | 114° |
| 2026-05-08 10:25 | 16.05486 | 108.20110 | 29 ft | 4 kts | 91° |
| 2026-05-08 10:25 | 16.05484 | 108.20094 | 29 ft | 4 kts | 4° |
| 2026-05-08 10:25 | 16.05482 | 108.20093 | 29 ft | 0 kts | 350° |
| 2026-05-08 10:29 | 16.05489 | 108.20092 | 29 ft | 3 kts | 350° |
| 2026-05-08 10:29 | 16.05514 | 108.20087 | 29 ft | 5 kts | 350° |
| 2026-05-08 10:29 | 16.05553 | 108.20080 | 29 ft | 7 kts | 350° |
| 2026-05-08 10:30 | 16.05606 | 108.20072 | 29 ft | 9 kts | 353° |
| 2026-05-08 10:30 | 16.05675 | 108.20063 | 29 ft | 11 kts | 353° |
| 2026-05-08 10:30 | 16.05760 | 108.20054 | 28 ft | 12 kts | 353° |
| 2026-05-08 10:30 | 16.05845 | 108.20039 | 28 ft | 14 kts | 349° |
| 2026-05-08 10:31 | 16.05946 | 108.20020 | 28 ft | 16 kts | 350° |
| 2026-05-08 10:31 | 16.06020 | 108.20004 | 28 ft | 10 kts | 337° |
| 2026-05-08 10:31 | 16.06050 | 108.19937 | 27 ft | 12 kts | 265° |
| 2026-05-08 10:31 | 16.06038 | 108.19854 | 27 ft | 13 kts | 261° |
| 2026-05-08 10:32 | 16.06013 | 108.19806 | 27 ft | 7 kts | 195° |
| 2026-05-08 10:32 | 16.05958 | 108.19810 | 28 ft | 11 kts | 171° |
| 2026-05-08 10:32 | 16.05738 | 108.19844 | 27 ft | 65 kts | 173° |
| 2026-05-08 10:32 | 16.05081 | 108.19940 | 29 ft | 123 kts | 172° |
| 2026-05-08 10:33 | 16.04074 | 108.20090 | 42 ft | 166 kts | 171° |
| 2026-05-08 10:33 | 16.02964 | 108.20248 | 690 ft | 157 kts | 171° |
| 2026-05-08 10:33 | 16.01847 | 108.20426 | 1143 ft | 168 kts | 169° |
| 2026-05-08 10:33 | 16.00680 | 108.20646 | 1706 ft | 171 kts | 168° |
| 2026-05-08 10:34 | 15.99492 | 108.20875 | 2167 ft | 179 kts | 169° |
| 2026-05-08 10:34 | 15.98190 | 108.21088 | 2364 ft | 201 kts | 170° |
| 2026-05-08 10:34 | 15.96720 | 108.21272 | 2543 ft | 225 kts | 177° |
| 2026-05-08 10:34 | 15.95075 | 108.21252 | 2863 ft | 248 kts | 181° |
| 2026-05-08 10:35 | 15.93278 | 108.21140 | 3320 ft | 266 kts | 183° |
| 2026-05-08 10:35 | 15.91405 | 108.21002 | 4080 ft | 272 kts | 183° |
| 2026-05-08 10:35 | 15.89502 | 108.20865 | 4918 ft | 276 kts | 183° |
| 2026-05-08 10:35 | 15.87577 | 108.20738 | 5726 ft | 278 kts | 183° |
| 2026-05-08 10:36 | 15.85630 | 108.20614 | 6487 ft | 283 kts | 183° |
| 2026-05-08 10:36 | 15.83651 | 108.20497 | 7252 ft | 286 kts | 182° |
| 2026-05-08 10:36 | 15.81650 | 108.20384 | 7994 ft | 289 kts | 182° |
| 2026-05-08 10:36 | 15.79628 | 108.20271 | 8708 ft | 292 kts | 182° |
| 2026-05-08 10:37 | 15.77580 | 108.20158 | 9379 ft | 296 kts | 182° |
| 2026-05-08 10:37 | 15.75508 | 108.20045 | 10024 ft | 301 kts | 182° |
| 2026-05-08 10:37 | 15.73342 | 108.19925 | 10202 ft | 322 kts | 182° |
| 2026-05-08 10:37 | 15.71037 | 108.19794 | 10371 ft | 341 kts | 182° |
| 2026-05-08 10:38 | 15.68620 | 108.19658 | 10735 ft | 352 kts | 182° |
| 2026-05-08 10:38 | 15.66157 | 108.19522 | 11293 ft | 356 kts | 182° |
| 2026-05-08 10:38 | 15.63672 | 108.19385 | 11878 ft | 359 kts | 182° |
| 2026-05-08 10:38 | 15.61166 | 108.19246 | 12478 ft | 362 kts | 182° |
| 2026-05-08 10:39 | 15.58641 | 108.19103 | 13051 ft | 365 kts | 182° |
| 2026-05-08 10:39 | 15.56095 | 108.18961 | 13614 ft | 368 kts | 182° |
| 2026-05-08 10:39 | 15.53528 | 108.18821 | 14165 ft | 371 kts | 182° |
| 2026-05-08 10:39 | 15.50941 | 108.18682 | 14704 ft | 374 kts | 182° |
| 2026-05-08 10:40 | 15.48331 | 108.18558 | 15236 ft | 377 kts | 181° |
| 2026-05-08 10:40 | 15.45699 | 108.18483 | 15758 ft | 380 kts | 181° |
| 2026-05-08 10:40 | 15.43049 | 108.18437 | 16269 ft | 383 kts | 180° |
| 2026-05-08 10:40 | 15.40378 | 108.18398 | 16771 ft | 385 kts | 180° |
| 2026-05-08 10:41 | 15.37687 | 108.18357 | 17270 ft | 388 kts | 180° |
| 2026-05-08 10:41 | 15.34972 | 108.18310 | 17765 ft | 391 kts | 180° |
| 2026-05-08 10:41 | 15.32243 | 108.18257 | 18261 ft | 394 kts | 181° |
| 2026-05-08 10:41 | 15.29492 | 108.18198 | 18747 ft | 397 kts | 181° |
| 2026-05-08 10:42 | 15.26719 | 108.18136 | 19228 ft | 400 kts | 181° |
| 2026-05-08 10:42 | 15.23927 | 108.18072 | 19701 ft | 403 kts | 181° |
| 2026-05-08 10:42 | 15.21148 | 108.18009 | 20166 ft | 406 kts | 181° |
| 2026-05-08 10:42 | 15.18310 | 108.17944 | 20627 ft | 409 kts | 181° |
| 2026-05-08 10:43 | 15.15454 | 108.17880 | 21089 ft | 412 kts | 181° |
| 2026-05-08 10:43 | 15.12579 | 108.17819 | 21518 ft | 415 kts | 181° |
| 2026-05-08 10:43 | 15.09681 | 108.17760 | 21933 ft | 418 kts | 181° |
| 2026-05-08 10:43 | 15.06766 | 108.17698 | 22336 ft | 420 kts | 181° |
| 2026-05-08 10:44 | 15.03832 | 108.17633 | 22714 ft | 423 kts | 181° |
| 2026-05-08 10:44 | 15.00881 | 108.17569 | 23079 ft | 426 kts | 181° |
| 2026-05-08 10:44 | 14.97914 | 108.17504 | 23435 ft | 428 kts | 181° |
| 2026-05-08 10:44 | 14.94924 | 108.17435 | 23780 ft | 430 kts | 181° |
| 2026-05-08 10:45 | 14.91923 | 108.17366 | 24124 ft | 433 kts | 181° |
| 2026-05-08 10:45 | 14.88906 | 108.17301 | 24450 ft | 435 kts | 181° |
| 2026-05-08 10:45 | 14.85868 | 108.17235 | 24767 ft | 438 kts | 181° |
| 2026-05-08 10:45 | 14.82820 | 108.17169 | 25071 ft | 440 kts | 181° |
| 2026-05-08 10:46 | 14.79753 | 108.17102 | 25357 ft | 442 kts | 181° |
| 2026-05-08 10:46 | 14.76671 | 108.17035 | 25659 ft | 444 kts | 181° |
| 2026-05-08 10:46 | 14.73572 | 108.16966 | 25949 ft | 446 kts | 181° |
| 2026-05-08 10:46 | 14.70460 | 108.16896 | 26230 ft | 448 kts | 181° |
| 2026-05-08 10:47 | 14.67334 | 108.16828 | 26505 ft | 451 kts | 181° |
| 2026-05-08 10:47 | 14.64190 | 108.16761 | 26773 ft | 453 kts | 181° |
| 2026-05-08 10:47 | 14.61032 | 108.16692 | 27034 ft | 455 kts | 181° |
| 2026-05-08 10:47 | 14.57863 | 108.16623 | 27289 ft | 457 kts | 181° |
| 2026-05-08 10:48 | 14.54681 | 108.16554 | 27530 ft | 459 kts | 181° |
| 2026-05-08 10:48 | 14.51483 | 108.16484 | 27783 ft | 461 kts | 181° |
| 2026-05-08 10:48 | 14.48272 | 108.16415 | 28038 ft | 462 kts | 181° |
| 2026-05-08 10:48 | 14.45089 | 108.16346 | 28277 ft | 464 kts | 181° |
| 2026-05-08 10:49 | 14.41807 | 108.16271 | 28504 ft | 467 kts | 181° |
| 2026-05-08 10:49 | 14.38553 | 108.16196 | 28749 ft | 469 kts | 181° |
| 2026-05-08 10:49 | 14.35291 | 108.16118 | 29037 ft | 469 kts | 181° |
| 2026-05-08 10:49 | 14.32026 | 108.16043 | 29391 ft | 468 kts | 181° |
| 2026-05-08 10:50 | 14.28814 | 108.15974 | 29742 ft | 468 kts | 181° |
| 2026-05-08 10:50 | 14.25555 | 108.15908 | 30112 ft | 468 kts | 181° |
| 2026-05-08 10:50 | 14.22307 | 108.15840 | 30460 ft | 467 kts | 181° |
| 2026-05-08 10:50 | 14.19059 | 108.15771 | 30809 ft | 467 kts | 181° |
| 2026-05-08 10:51 | 14.15812 | 108.15699 | 31142 ft | 466 kts | 181° |
| 2026-05-08 10:51 | 14.12569 | 108.15629 | 31492 ft | 466 kts | 181° |
| 2026-05-08 10:51 | 14.09327 | 108.15559 | 31846 ft | 465 kts | 181° |
| 2026-05-08 10:51 | 14.06092 | 108.15487 | 32187 ft | 465 kts | 181° |
| 2026-05-08 10:52 | 14.02855 | 108.15415 | 32545 ft | 465 kts | 181° |
| 2026-05-08 10:52 | 13.99626 | 108.15347 | 32899 ft | 464 kts | 181° |
| 2026-05-08 10:52 | 13.96397 | 108.15280 | 33234 ft | 464 kts | 181° |
| 2026-05-08 10:52 | 13.93173 | 108.15212 | 33565 ft | 463 kts | 181° |
| 2026-05-08 10:53 | 13.89950 | 108.15142 | 33883 ft | 463 kts | 181° |
| 2026-05-08 10:53 | 13.86730 | 108.15070 | 34194 ft | 463 kts | 181° |
| 2026-05-08 10:53 | 13.83512 | 108.14998 | 34513 ft | 462 kts | 181° |
| 2026-05-08 10:53 | 13.80297 | 108.14925 | 34826 ft | 462 kts | 181° |
| 2026-05-08 10:54 | 13.77088 | 108.14852 | 35128 ft | 461 kts | 181° |
| 2026-05-08 10:54 | 13.73884 | 108.14780 | 35425 ft | 460 kts | 181° |
| 2026-05-08 10:54 | 13.70685 | 108.14714 | 35713 ft | 459 kts | 181° |
| 2026-05-08 10:54 | 13.67485 | 108.14649 | 35851 ft | 460 kts | 181° |
| 2026-05-08 10:55 | 13.64265 | 108.14579 | 35885 ft | 466 kts | 181° |
| 2026-05-08 10:55 | 13.57744 | 108.14432 | 35867 ft | 471 kts | 181° |
| 2026-05-08 10:56 | 13.51189 | 108.14294 | 35870 ft | 471 kts | 181° |
| 2026-05-08 10:56 | 13.44628 | 108.14152 | 35865 ft | 472 kts | 181° |
| 2026-05-08 10:57 | 13.38072 | 108.14007 | 35869 ft | 471 kts | 181° |
| 2026-05-08 10:57 | 13.28273 | 108.13783 | 35868 ft | 472 kts | 181° |
| 2026-05-08 10:58 | 13.21711 | 108.13622 | 35867 ft | 472 kts | 181° |
| 2026-05-08 10:58 | 13.15155 | 108.13454 | 35880 ft | 471 kts | 181° |
| 2026-05-08 10:59 | 13.08593 | 108.13297 | 35880 ft | 471 kts | 181° |
| 2026-05-08 10:59 | 13.02033 | 108.13146 | 35881 ft | 471 kts | 181° |
| 2026-05-08 11:00 | 12.95470 | 108.12993 | 35883 ft | 472 kts | 181° |
| 2026-05-08 11:00 | 12.88909 | 108.12834 | 35883 ft | 472 kts | 181° |
| 2026-05-08 11:01 | 12.82347 | 108.12673 | 35882 ft | 472 kts | 181° |
| 2026-05-08 11:01 | 12.75784 | 108.12516 | 35884 ft | 472 kts | 181° |
| 2026-05-08 11:02 | 12.65941 | 108.12285 | 35884 ft | 472 kts | 181° |
| 2026-05-08 11:03 | 12.59380 | 108.12149 | 35884 ft | 471 kts | 181° |
| 2026-05-08 11:03 | 12.52821 | 108.12020 | 35885 ft | 471 kts | 180° |
| 2026-05-08 11:04 | 12.46260 | 108.11889 | 35883 ft | 471 kts | 181° |
| 2026-05-08 11:04 | 12.39708 | 108.11754 | 35883 ft | 471 kts | 181° |
| 2026-05-08 11:05 | 12.33157 | 108.11625 | 35882 ft | 471 kts | 181° |
| 2026-05-08 11:05 | 12.26605 | 108.11499 | 35880 ft | 471 kts | 180° |
| 2026-05-08 11:06 | 12.20056 | 108.11372 | 35879 ft | 471 kts | 181° |
| 2026-05-08 11:06 | 12.13505 | 108.11239 | 35881 ft | 471 kts | 181° |
| 2026-05-08 11:07 | 12.06952 | 108.11110 | 35884 ft | 471 kts | 180° |
| 2026-05-08 11:07 | 12.01508 | 108.11002 | 35882 ft | 471 kts | 181° |
| 2026-05-08 11:08 | 11.94987 | 108.10460 | 35881 ft | 471 kts | 193° |
| 2026-05-08 11:08 | 11.91874 | 108.09435 | 35880 ft | 471 kts | 204° |
| 2026-05-08 11:08 | 11.88989 | 108.07868 | 35881 ft | 470 kts | 214° |
| 2026-05-08 11:09 | 11.84031 | 108.03543 | 35872 ft | 469 kts | 223° |
| 2026-05-08 11:09 | 11.79236 | 107.99011 | 35874 ft | 470 kts | 223° |
| 2026-05-08 11:10 | 11.74423 | 107.94484 | 35874 ft | 470 kts | 223° |
| 2026-05-08 11:10 | 11.69615 | 107.89955 | 35860 ft | 471 kts | 223° |
| 2026-05-08 11:11 | 11.64806 | 107.85417 | 35868 ft | 471 kts | 223° |
| 2026-05-08 11:11 | 11.59989 | 107.80885 | 35862 ft | 471 kts | 223° |
| 2026-05-08 11:12 | 11.55167 | 107.76358 | 35862 ft | 471 kts | 223° |
| 2026-05-08 11:12 | 11.50360 | 107.71830 | 35866 ft | 471 kts | 223° |
| 2026-05-08 11:13 | 11.45553 | 107.67297 | 35855 ft | 471 kts | 223° |
| 2026-05-08 11:13 | 11.40751 | 107.62770 | 35857 ft | 470 kts | 223° |
| 2026-05-08 11:14 | 11.35941 | 107.58253 | 35840 ft | 470 kts | 223° |
| 2026-05-08 11:14 | 11.31130 | 107.53736 | 35849 ft | 470 kts | 223° |
| 2026-05-08 11:15 | 11.26318 | 107.49216 | 35842 ft | 470 kts | 223° |
| 2026-05-08 11:15 | 11.21509 | 107.44698 | 35843 ft | 470 kts | 223° |
| 2026-05-08 11:16 | 11.16699 | 107.40182 | 35839 ft | 470 kts | 223° |
| 2026-05-08 11:16 | 11.11881 | 107.35670 | 35841 ft | 470 kts | 223° |
| 2026-05-08 11:17 | 11.07067 | 107.31162 | 35843 ft | 470 kts | 223° |
| 2026-05-08 11:17 | 11.02265 | 107.26641 | 35838 ft | 470 kts | 223° |
| 2026-05-08 11:18 | 10.97448 | 107.22135 | 35831 ft | 470 kts | 221° |
| 2026-05-08 11:18 | 10.91945 | 107.18596 | 35831 ft | 470 kts | 202° |
| 2026-05-08 11:19 | 10.85719 | 107.16755 | 35825 ft | 470 kts | 194° |
| 2026-05-08 11:19 | 10.79382 | 107.15155 | 35826 ft | 470 kts | 194° |
| 2026-05-08 11:20 | 10.73034 | 107.13548 | 35826 ft | 470 kts | 194° |
| 2026-05-08 11:20 | 10.66680 | 107.11941 | 35827 ft | 470 kts | 194° |
| 2026-05-08 11:21 | 10.60284 | 107.10318 | 35829 ft | 471 kts | 194° |
| 2026-05-08 11:21 | 10.53932 | 107.08710 | 35830 ft | 471 kts | 194° |
| 2026-05-08 11:22 | 10.47618 | 107.07116 | 35828 ft | 471 kts | 194° |
| 2026-05-08 11:22 | 10.41267 | 107.05504 | 35827 ft | 470 kts | 194° |
| 2026-05-08 11:23 | 10.34919 | 107.03882 | 35827 ft | 470 kts | 194° |
| 2026-05-08 11:23 | 10.30674 | 107.02801 | 35826 ft | 470 kts | 194° |
| 2026-05-08 11:24 | 10.22281 | 107.00655 | 35822 ft | 469 kts | 194° |
| 2026-05-08 11:24 | 10.15942 | 106.99037 | 35817 ft | 469 kts | 194° |
| 2026-05-08 11:25 | 10.09610 | 106.97423 | 35813 ft | 469 kts | 194° |
| 2026-05-08 11:25 | 10.03282 | 106.95808 | 35813 ft | 469 kts | 194° |
| 2026-05-08 11:26 | 9.97371 | 106.94303 | 35813 ft | 469 kts | 194° |
| 2026-05-08 11:26 | 9.91041 | 106.92692 | 35812 ft | 469 kts | 194° |
| 2026-05-08 11:27 | 9.84714 | 106.91077 | 35818 ft | 469 kts | 194° |
| 2026-05-08 11:27 | 9.78391 | 106.89471 | 35823 ft | 469 kts | 194° |
| 2026-05-08 11:28 | 9.72060 | 106.87868 | 35823 ft | 469 kts | 194° |
| 2026-05-08 11:28 | 9.65725 | 106.86262 | 35832 ft | 469 kts | 194° |
| 2026-05-08 11:29 | 9.59390 | 106.84646 | 35834 ft | 470 kts | 194° |
| 2026-05-08 11:29 | 9.53052 | 106.83020 | 35834 ft | 470 kts | 194° |
| 2026-05-08 11:30 | 9.46719 | 106.81398 | 35835 ft | 469 kts | 194° |
| 2026-05-08 11:30 | 9.40385 | 106.79782 | 35833 ft | 469 kts | 194° |
| 2026-05-08 11:31 | 9.34050 | 106.78161 | 35838 ft | 470 kts | 194° |
| 2026-05-08 11:31 | 9.27712 | 106.76542 | 35842 ft | 470 kts | 194° |
| 2026-05-08 11:32 | 9.21379 | 106.74916 | 35840 ft | 469 kts | 194° |
| 2026-05-08 11:32 | 9.15049 | 106.73298 | 35840 ft | 469 kts | 194° |
| 2026-05-08 11:33 | 9.08717 | 106.71683 | 35839 ft | 469 kts | 194° |
| 2026-05-08 11:33 | 9.02399 | 106.70068 | 35838 ft | 468 kts | 194° |
| 2026-05-08 11:34 | 8.96093 | 106.68449 | 35821 ft | 466 kts | 194° |
| 2026-05-08 11:34 | 8.89800 | 106.66833 | 35817 ft | 467 kts | 194° |
| 2026-05-08 11:35 | 8.83496 | 106.65241 | 35820 ft | 467 kts | 194° |
| 2026-05-08 11:35 | 8.77186 | 106.63640 | 35821 ft | 468 kts | 194° |
| 2026-05-08 11:36 | 8.71127 | 106.61312 | 35822 ft | 467 kts | 211° |
| 2026-05-08 11:36 | 8.65595 | 106.57884 | 35821 ft | 466 kts | 212° |
| 2026-05-08 11:37 | 8.60078 | 106.54443 | 35820 ft | 466 kts | 212° |
| 2026-05-08 11:37 | 8.54553 | 106.51008 | 35823 ft | 467 kts | 212° |
| 2026-05-08 11:38 | 8.49018 | 106.47574 | 35825 ft | 467 kts | 212° |
| 2026-05-08 11:38 | 8.43486 | 106.44142 | 35829 ft | 467 kts | 212° |
| 2026-05-08 11:39 | 8.37956 | 106.40709 | 35831 ft | 467 kts | 212° |
| 2026-05-08 11:39 | 8.32422 | 106.37281 | 35830 ft | 467 kts | 212° |
| 2026-05-08 11:40 | 8.26879 | 106.33854 | 35832 ft | 467 kts | 212° |
| 2026-05-08 11:40 | 8.21342 | 106.30426 | 35836 ft | 467 kts | 212° |
| 2026-05-08 11:41 | 8.15811 | 106.26996 | 35836 ft | 467 kts | 212° |
| 2026-05-08 11:41 | 8.10284 | 106.23565 | 35836 ft | 466 kts | 212° |
| 2026-05-08 11:42 | 8.04753 | 106.20139 | 35834 ft | 466 kts | 212° |
| 2026-05-08 11:42 | 7.99226 | 106.16722 | 35835 ft | 466 kts | 212° |
| 2026-05-08 11:43 | 7.93699 | 106.13309 | 35836 ft | 466 kts | 212° |
| 2026-05-08 11:43 | 7.88171 | 106.09895 | 35835 ft | 466 kts | 212° |
| 2026-05-08 11:44 | 7.82643 | 106.06477 | 35835 ft | 466 kts | 212° |
| 2026-05-08 11:44 | 7.77122 | 106.03061 | 35832 ft | 466 kts | 212° |
| 2026-05-08 11:45 | 7.71600 | 105.99638 | 35834 ft | 466 kts | 212° |
| 2026-05-08 11:45 | 7.66079 | 105.96231 | 35831 ft | 465 kts | 212° |
| 2026-05-08 11:46 | 7.60560 | 105.92824 | 35837 ft | 465 kts | 212° |
| 2026-05-08 11:46 | 7.55042 | 105.89418 | 35841 ft | 465 kts | 212° |
| 2026-05-08 11:47 | 7.49521 | 105.86017 | 35839 ft | 465 kts | 212° |
| 2026-05-08 11:47 | 7.44001 | 105.82616 | 35849 ft | 465 kts | 212° |
| 2026-05-08 11:48 | 7.38483 | 105.79212 | 35847 ft | 465 kts | 212° |
| 2026-05-08 11:48 | 7.32965 | 105.75801 | 35847 ft | 465 kts | 212° |
| 2026-05-08 11:49 | 7.27436 | 105.72395 | 35851 ft | 466 kts | 211° |
| 2026-05-08 11:49 | 7.21910 | 105.68996 | 35842 ft | 465 kts | 211° |
| 2026-05-08 11:50 | 7.16391 | 105.65588 | 35847 ft | 465 kts | 211° |
| 2026-05-08 11:50 | 7.10871 | 105.62187 | 35842 ft | 465 kts | 211° |
| 2026-05-08 11:51 | 7.06276 | 105.59366 | 35842 ft | 465 kts | 211° |
| 2026-05-08 11:51 | 7.00752 | 105.55965 | 35840 ft | 465 kts | 211° |
| 2026-05-08 11:52 | 6.95100 | 105.52790 | 35839 ft | 465 kts | 207° |
| 2026-05-08 11:52 | 6.89278 | 105.49930 | 35836 ft | 465 kts | 205° |
| 2026-05-08 11:53 | 6.83443 | 105.47094 | 35838 ft | 466 kts | 206° |
| 2026-05-08 11:53 | 6.77647 | 105.44170 | 35839 ft | 466 kts | 207° |
| 2026-05-08 11:54 | 6.71878 | 105.41202 | 35838 ft | 466 kts | 207° |
| 2026-05-08 11:54 | 6.66102 | 105.38245 | 35835 ft | 466 kts | 207° |
| 2026-05-08 11:55 | 6.60315 | 105.35312 | 35836 ft | 466 kts | 206° |
| 2026-05-08 11:55 | 6.54529 | 105.32377 | 35841 ft | 466 kts | 206° |
| 2026-05-08 11:56 | 6.48742 | 105.29433 | 35841 ft | 466 kts | 207° |
| 2026-05-08 11:56 | 6.42950 | 105.26494 | 35839 ft | 466 kts | 206° |
| 2026-05-08 11:57 | 6.37148 | 105.23546 | 35808 ft | 468 kts | 207° |
| 2026-05-08 11:57 | 6.31323 | 105.20585 | 35805 ft | 470 kts | 207° |
| 2026-05-08 11:58 | 6.25475 | 105.17614 | 35809 ft | 472 kts | 206° |
| 2026-05-08 11:58 | 6.19608 | 105.14646 | 35820 ft | 473 kts | 206° |
| 2026-05-08 11:59 | 6.10792 | 105.10181 | 35827 ft | 473 kts | 206° |
| 2026-05-08 11:59 | 6.04911 | 105.07201 | 35827 ft | 473 kts | 206° |
| 2026-05-08 12:00 | 5.99035 | 105.04216 | 35830 ft | 473 kts | 207° |
| 2026-05-08 12:00 | 5.93170 | 105.01227 | 35829 ft | 473 kts | 206° |
| 2026-05-08 12:01 | 5.87297 | 104.98250 | 35823 ft | 473 kts | 206° |
| 2026-05-08 12:01 | 5.81459 | 104.95295 | 35828 ft | 473 kts | 206° |
| 2026-05-08 12:02 | 5.75581 | 104.92317 | 35829 ft | 473 kts | 206° |
| 2026-05-08 12:02 | 5.69703 | 104.89343 | 35826 ft | 473 kts | 206° |
| 2026-05-08 12:03 | 5.63829 | 104.86376 | 35825 ft | 472 kts | 206° |
| 2026-05-08 12:03 | 5.57960 | 104.83403 | 35821 ft | 473 kts | 206° |
| 2026-05-08 12:04 | 5.52085 | 104.80423 | 35825 ft | 473 kts | 206° |
| 2026-05-08 12:04 | 5.46203 | 104.77446 | 35827 ft | 473 kts | 206° |
| 2026-05-08 12:05 | 5.40325 | 104.74472 | 35829 ft | 473 kts | 206° |
| 2026-05-08 12:05 | 5.34452 | 104.71498 | 35831 ft | 473 kts | 206° |
| 2026-05-08 12:06 | 5.28571 | 104.68535 | 35829 ft | 473 kts | 206° |
| 2026-05-08 12:06 | 5.22697 | 104.65564 | 35827 ft | 473 kts | 206° |
| 2026-05-08 12:07 | 5.16826 | 104.62593 | 35827 ft | 473 kts | 206° |
| 2026-05-08 12:07 | 5.10951 | 104.59618 | 35830 ft | 473 kts | 206° |
| 2026-05-08 12:08 | 5.05073 | 104.56652 | 35831 ft | 473 kts | 206° |
| 2026-05-08 12:08 | 4.99191 | 104.53686 | 35832 ft | 473 kts | 206° |
| 2026-05-08 12:09 | 4.93311 | 104.50717 | 35833 ft | 473 kts | 206° |
| 2026-05-08 12:09 | 4.87171 | 104.48451 | 35829 ft | 471 kts | 189° |
| 2026-05-08 12:10 | 4.80661 | 104.48284 | 35827 ft | 469 kts | 172° |
| 2026-05-08 12:10 | 4.74181 | 104.49116 | 35823 ft | 469 kts | 172° |
| 2026-05-08 12:11 | 4.67701 | 104.49923 | 35819 ft | 469 kts | 172° |
| 2026-05-08 12:11 | 4.61213 | 104.50736 | 35820 ft | 470 kts | 172° |
| 2026-05-08 12:12 | 4.54719 | 104.51558 | 35823 ft | 470 kts | 172° |
| 2026-05-08 12:12 | 4.48234 | 104.52378 | 35825 ft | 470 kts | 172° |
| 2026-05-08 12:13 | 4.41743 | 104.53193 | 35829 ft | 470 kts | 172° |
| 2026-05-08 12:13 | 4.35250 | 104.54015 | 35834 ft | 470 kts | 172° |
| 2026-05-08 12:14 | 4.28751 | 104.54842 | 35838 ft | 470 kts | 172° |
| 2026-05-08 12:14 | 4.22257 | 104.55661 | 35837 ft | 470 kts | 172° |
| 2026-05-08 12:15 | 4.15759 | 104.56399 | 35837 ft | 470 kts | 174° |
| 2026-05-08 12:15 | 4.09233 | 104.56998 | 35844 ft | 471 kts | 174° |
| 2026-05-08 12:16 | 4.02712 | 104.57593 | 35855 ft | 471 kts | 174° |
| 2026-05-08 12:16 | 3.96191 | 104.58227 | 35860 ft | 471 kts | 174° |
| 2026-05-08 12:17 | 3.89673 | 104.58876 | 35868 ft | 470 kts | 174° |
| 2026-05-08 12:17 | 3.83160 | 104.59519 | 35861 ft | 470 kts | 174° |
| 2026-05-08 12:18 | 3.76645 | 104.60155 | 35862 ft | 470 kts | 174° |
| 2026-05-08 12:18 | 3.70134 | 104.60790 | 35863 ft | 470 kts | 174° |
| 2026-05-08 12:19 | 3.63627 | 104.61426 | 35867 ft | 470 kts | 174° |
| 2026-05-08 12:19 | 3.60371 | 104.61745 | 35751 ft | 470 kts | 174° |
| 2026-05-08 12:19 | 3.57117 | 104.62064 | 35499 ft | 469 kts | 174° |
| 2026-05-08 12:20 | 3.53866 | 104.62385 | 35252 ft | 470 kts | 174° |
| 2026-05-08 12:20 | 3.50614 | 104.62706 | 35009 ft | 470 kts | 173° |
| 2026-05-08 12:20 | 3.47360 | 104.63026 | 34751 ft | 470 kts | 174° |
| 2026-05-08 12:20 | 3.44100 | 104.63344 | 34501 ft | 471 kts | 174° |
| 2026-05-08 12:21 | 3.40840 | 104.63662 | 34251 ft | 471 kts | 174° |
| 2026-05-08 12:21 | 3.37577 | 104.63982 | 34003 ft | 472 kts | 173° |
| 2026-05-08 12:21 | 3.34312 | 104.64306 | 33822 ft | 471 kts | 173° |
| 2026-05-08 12:21 | 3.31045 | 104.64628 | 33874 ft | 472 kts | 173° |
| 2026-05-08 12:22 | 3.24501 | 104.65271 | 33869 ft | 473 kts | 174° |
| 2026-05-08 12:22 | 3.17948 | 104.65911 | 33868 ft | 473 kts | 174° |
| 2026-05-08 12:23 | 3.11393 | 104.66528 | 33866 ft | 473 kts | 177° |
| 2026-05-08 12:23 | 3.08108 | 104.66372 | 33869 ft | 474 kts | 188° |
| 2026-05-08 12:23 | 3.04908 | 104.65587 | 33869 ft | 475 kts | 199° |
| 2026-05-08 12:24 | 3.01909 | 104.64200 | 33869 ft | 476 kts | 210° |
| 2026-05-08 12:24 | 2.99221 | 104.62262 | 33869 ft | 477 kts | 221° |
| 2026-05-08 12:24 | 2.94610 | 104.57478 | 33868 ft | 478 kts | 226° |
| 2026-05-08 12:25 | 2.90062 | 104.52629 | 33871 ft | 478 kts | 226° |
| 2026-05-08 12:25 | 2.87793 | 104.50202 | 33425 ft | 477 kts | 226° |
| 2026-05-08 12:25 | 2.85526 | 104.47776 | 31782 ft | 480 kts | 226° |
| 2026-05-08 12:26 | 2.83230 | 104.45318 | 30233 ft | 483 kts | 226° |
| 2026-05-08 12:26 | 2.80973 | 104.42901 | 29490 ft | 467 kts | 226° |
| 2026-05-08 12:26 | 2.78765 | 104.40542 | 28319 ft | 463 kts | 226° |
| 2026-05-08 12:26 | 2.76561 | 104.38189 | 27226 ft | 465 kts | 226° |
| 2026-05-08 12:27 | 2.74344 | 104.35827 | 25996 ft | 467 kts | 226° |
| 2026-05-08 12:27 | 2.72116 | 104.33449 | 24750 ft | 470 kts | 226° |
| 2026-05-08 12:27 | 2.69877 | 104.31057 | 23494 ft | 471 kts | 226° |
| 2026-05-08 12:27 | 2.67649 | 104.28674 | 22419 ft | 466 kts | 226° |
| 2026-05-08 12:28 | 2.65469 | 104.26344 | 21543 ft | 450 kts | 226° |
| 2026-05-08 12:28 | 2.63386 | 104.24119 | 21058 ft | 426 kts | 226° |
| 2026-05-08 12:28 | 2.61412 | 104.22010 | 20634 ft | 406 kts | 226° |
| 2026-05-08 12:28 | 2.59527 | 104.19998 | 20211 ft | 387 kts | 226° |
| 2026-05-08 12:29 | 2.57725 | 104.18073 | 19787 ft | 370 kts | 226° |
| 2026-05-08 12:29 | 2.56024 | 104.16251 | 19369 ft | 357 kts | 226° |
| 2026-05-08 12:29 | 2.54351 | 104.14458 | 18944 ft | 350 kts | 226° |
| 2026-05-08 12:29 | 2.52624 | 104.12769 | 18522 ft | 348 kts | 217° |
| 2026-05-08 12:30 | 2.50585 | 104.11495 | 18100 ft | 345 kts | 204° |
| 2026-05-08 12:30 | 2.48330 | 104.10731 | 17674 ft | 342 kts | 191° |
| 2026-05-08 12:30 | 2.45977 | 104.10490 | 17247 ft | 339 kts | 179° |
| 2026-05-08 12:30 | 2.43628 | 104.10497 | 16818 ft | 335 kts | 179° |
| 2026-05-08 12:31 | 2.41321 | 104.10501 | 16389 ft | 330 kts | 179° |
| 2026-05-08 12:31 | 2.39033 | 104.10502 | 15964 ft | 328 kts | 179° |
| 2026-05-08 12:31 | 2.36764 | 104.10499 | 15532 ft | 325 kts | 179° |
| 2026-05-08 12:31 | 2.34504 | 104.10498 | 15109 ft | 323 kts | 179° |
| 2026-05-08 12:32 | 2.32184 | 104.10509 | 14687 ft | 346 kts | 179° |
| 2026-05-08 12:32 | 2.29708 | 104.10528 | 14256 ft | 357 kts | 179° |
| 2026-05-08 12:32 | 2.27282 | 104.10537 | 13831 ft | 344 kts | 179° |
| 2026-05-08 12:32 | 2.24896 | 104.10537 | 13405 ft | 341 kts | 179° |
| 2026-05-08 12:33 | 2.22534 | 104.10530 | 12979 ft | 338 kts | 180° |
| 2026-05-08 12:33 | 2.20194 | 104.10522 | 12552 ft | 335 kts | 180° |
| 2026-05-08 12:33 | 2.17868 | 104.10516 | 12126 ft | 333 kts | 180° |
| 2026-05-08 12:33 | 2.15555 | 104.10514 | 11698 ft | 331 kts | 180° |
| 2026-05-08 12:34 | 2.13261 | 104.10512 | 11273 ft | 329 kts | 180° |
| 2026-05-08 12:34 | 2.10978 | 104.10508 | 10847 ft | 327 kts | 180° |
| 2026-05-08 12:34 | 2.09442 | 104.10506 | 10556 ft | 326 kts | 180° |
| 2026-05-08 12:34 | 2.06450 | 104.10502 | 10046 ft | 322 kts | 180° |
| 2026-05-08 12:35 | 2.04980 | 104.10500 | 9964 ft | 315 kts | 180° |
| 2026-05-08 12:35 | 2.02848 | 104.10498 | 9977 ft | 299 kts | 180° |
| 2026-05-08 12:35 | 2.00818 | 104.10496 | 9972 ft | 285 kts | 180° |
| 2026-05-08 12:35 | 1.98865 | 104.10495 | 9845 ft | 276 kts | 180° |
| 2026-05-08 12:36 | 1.96972 | 104.10498 | 9720 ft | 268 kts | 180° |
| 2026-05-08 12:36 | 1.95122 | 104.10506 | 9586 ft | 265 kts | 180° |
| 2026-05-08 12:36 | 1.93283 | 104.10513 | 9470 ft | 263 kts | 180° |
| 2026-05-08 12:36 | 1.91475 | 104.10481 | 9343 ft | 255 kts | 182° |
| 2026-05-08 12:37 | 1.89706 | 104.10412 | 9214 ft | 247 kts | 182° |
| 2026-05-08 12:37 | 1.88047 | 104.10335 | 9089 ft | 237 kts | 183° |
| 2026-05-08 12:37 | 1.86432 | 104.10256 | 8963 ft | 228 kts | 183° |
| 2026-05-08 12:37 | 1.84794 | 104.10177 | 8835 ft | 250 kts | 183° |
| 2026-05-08 12:38 | 1.83018 | 104.10094 | 8720 ft | 259 kts | 183° |
| 2026-05-08 12:38 | 1.81186 | 104.10010 | 8593 ft | 260 kts | 182° |
| 2026-05-08 12:38 | 1.79376 | 104.09930 | 8465 ft | 260 kts | 182° |
| 2026-05-08 12:38 | 1.77572 | 104.09854 | 8330 ft | 259 kts | 182° |
| 2026-05-08 12:39 | 1.75748 | 104.09777 | 7890 ft | 264 kts | 182° |
| 2026-05-08 12:39 | 1.73932 | 104.09701 | 7669 ft | 260 kts | 182° |
| 2026-05-08 12:39 | 1.72148 | 104.09626 | 7356 ft | 260 kts | 182° |
| 2026-05-08 12:39 | 1.70345 | 104.09549 | 7051 ft | 257 kts | 182° |
| 2026-05-08 12:40 | 1.68565 | 104.09471 | 6539 ft | 255 kts | 182° |
| 2026-05-08 12:40 | 1.66796 | 104.09397 | 6031 ft | 254 kts | 182° |
| 2026-05-08 12:40 | 1.65043 | 104.09324 | 5535 ft | 251 kts | 182° |
| 2026-05-08 12:40 | 1.63310 | 104.09249 | 5021 ft | 248 kts | 182° |
| 2026-05-08 12:41 | 1.61616 | 104.08978 | 4503 ft | 246 kts | 197° |
| 2026-05-08 12:41 | 1.60021 | 104.08380 | 3948 ft | 245 kts | 202° |
| 2026-05-08 12:41 | 1.58468 | 104.07708 | 3558 ft | 237 kts | 203° |
| 2026-05-08 12:41 | 1.57013 | 104.07086 | 3487 ft | 215 kts | 202° |
| 2026-05-08 12:42 | 1.55683 | 104.06523 | 3501 ft | 204 kts | 202° |
| 2026-05-08 12:42 | 1.54380 | 104.05973 | 3462 ft | 203 kts | 202° |
| 2026-05-08 12:42 | 1.53083 | 104.05426 | 3265 ft | 201 kts | 202° |
| 2026-05-08 12:42 | 1.51825 | 104.04895 | 3048 ft | 191 kts | 202° |
| 2026-05-08 12:43 | 1.50630 | 104.04390 | 2773 ft | 182 kts | 202° |
| 2026-05-08 12:43 | 1.49511 | 104.03917 | 2525 ft | 165 kts | 202° |
| 2026-05-08 12:43 | 1.48486 | 104.03485 | 2328 ft | 156 kts | 202° |
| 2026-05-08 12:43 | 1.47515 | 104.03074 | 2146 ft | 146 kts | 202° |
| 2026-05-08 12:44 | 1.46588 | 104.02683 | 1943 ft | 143 kts | 202° |
| 2026-05-08 12:44 | 1.45677 | 104.02297 | 1753 ft | 141 kts | 202° |
| 2026-05-08 12:44 | 1.44776 | 104.01917 | 1565 ft | 140 kts | 203° |
| 2026-05-08 12:44 | 1.43879 | 104.01539 | 1378 ft | 140 kts | 203° |
| 2026-05-08 12:45 | 1.42983 | 104.01160 | 1194 ft | 139 kts | 203° |
| 2026-05-08 12:45 | 1.42095 | 104.00786 | 1021 ft | 139 kts | 203° |
| 2026-05-08 12:45 | 1.41207 | 104.00413 | 809 ft | 137 kts | 203° |
| 2026-05-08 12:45 | 1.40323 | 104.00036 | 661 ft | 138 kts | 203° |
| 2026-05-08 12:46 | 1.39441 | 103.99660 | 438 ft | 138 kts | 203° |
| 2026-05-08 12:46 | 1.38560 | 103.99288 | 265 ft | 138 kts | 203° |
| 2026-05-08 12:46 | 1.37679 | 103.98918 | 86 ft | 137 kts | 203° |
| 2026-05-08 12:46 | 1.36870 | 103.98579 | 31 ft | 105 kts | 203° |
| 2026-05-08 12:47 | 1.36358 | 103.98360 | 31 ft | 55 kts | 203° |
| 2026-05-08 12:47 | 1.36114 | 103.98268 | 31 ft | 20 kts | 183° |
| 2026-05-08 12:47 | 1.35973 | 103.98282 | 31 ft | 17 kts | 172° |
| 2026-05-08 12:47 | 1.35921 | 103.98330 | 31 ft | 10 kts | 93° |
| 2026-05-08 12:48 | 1.35958 | 103.98388 | 31 ft | 11 kts | 25° |
| 2026-05-08 12:48 | 1.36028 | 103.98416 | 31 ft | 11 kts | 23° |
| 2026-05-08 12:48 | 1.36105 | 103.98448 | 31 ft | 12 kts | 23° |
| 2026-05-08 12:48 | 1.36121 | 103.98482 | 30 ft | 5 kts | 114° |
| 2026-05-08 12:49 | 1.36105 | 103.98518 | 30 ft | 8 kts | 115° |
| 2026-05-08 12:49 | 1.36074 | 103.98585 | 30 ft | 8 kts | 112° |
| 2026-05-08 12:49 | 1.36085 | 103.98636 | 30 ft | 8 kts | 44° |
| 2026-05-08 12:49 | 1.36139 | 103.98660 | 30 ft | 9 kts | 22° |
| 2026-05-08 12:50 | 1.36200 | 103.98686 | 30 ft | 10 kts | 23° |
| 2026-05-08 12:50 | 1.36254 | 103.98710 | 30 ft | 8 kts | 24° |
| 2026-05-08 12:50 | 1.36272 | 103.98745 | 30 ft | 6 kts | 108° |
| 2026-05-08 12:50 | 1.36248 | 103.98778 | 30 ft | 6 kts | 127° |
| 2026-05-08 12:51 | 1.36232 | 103.98814 | 30 ft | 2 kts | 113° |
| 2026-05-08 12:51 | 1.36231 | 103.98816 | 30 ft | 0 kts | 113° |